Time;durP1;ratioP1;P1;durP2;ratioP2;P2;SDS_P1;SDS_P2;PMS_P1;PMS_P2;Temp;Humidity;BMP_temperature;BMP_pressure;BME280_temperature;BME280_humidity;BME280_pressure;Samples;Min_cycle;Max_cycle;Signal;HPM_P1;HPM_P2
2024/04/17 00:00:50;;;;;;;4.43;2.23;;;6.40;99.90;;;;;;5352998;26;20250;-56
2024/04/17 00:03:19;;;;;;;2.23;1.80;;;6.40;99.90;;;;;;5339374;26;20281;-55
2024/04/17 00:05:45;;;;;;;6.57;2.50;;;6.40;99.90;;;;;;5363636;26;20649;-53
2024/04/17 00:08:13;;;;;;;5.20;2.60;;;6.40;99.90;;;;;;5358098;26;20245;-53
2024/04/17 00:10:41;;;;;;;4.57;2.63;;;6.40;99.90;;;;;;5311494;26;20261;-51
2024/04/17 00:13:09;;;;;;;4.03;2.70;;;6.40;99.90;;;;;;5347629;26;20234;-54
2024/04/17 00:15:38;;;;;;;5.70;2.80;;;6.40;99.90;;;;;;5340973;26;20281;-51
2024/04/17 00:18:07;;;;;;;5.23;3.30;;;6.40;99.90;;;;;;5355555;26;20284;-53
2024/04/17 00:20:33;;;;;;;2.97;2.60;;;6.40;99.90;;;;;;5371210;26;20238;-48
2024/04/17 00:23:01;;;;;;;4.33;3.00;;;6.40;99.90;;;;;;5363206;26;20740;-52
2024/04/17 00:25:27;;;;;;;3.87;2.97;;;6.40;99.90;;;;;;5318238;26;20599;-49
2024/04/17 00:27:55;;;;;;;3.30;2.70;;;6.40;99.90;;;;;;5357481;26;20353;-51
2024/04/17 00:30:21;;;;;;;4.13;2.80;;;6.40;99.90;;;;;;5346405;26;20226;-51
2024/04/17 00:32:52;;;;;;;3.43;2.70;;;6.30;99.90;;;;;;5343607;26;20276;-48
2024/04/17 00:35:19;;;;;;;3.37;2.70;;;6.30;99.90;;;;;;5347586;26;20237;-48
2024/04/17 00:37:47;;;;;;;3.33;2.57;;;6.30;99.90;;;;;;5363551;26;20276;-49
2024/04/17 00:40:13;;;;;;;4.87;2.70;;;6.30;99.90;;;;;;5358891;26;20277;-52
2024/04/17 00:42:42;;;;;;;4.67;2.83;;;6.30;99.90;;;;;;5303460;26;20242;-49
2024/04/17 00:45:08;;;;;;;4.87;3.00;;;6.30;99.90;;;;;;5355526;26;20237;-53
2024/04/17 00:47:36;;;;;;;4.20;3.07;;;6.30;99.90;;;;;;5364793;26;20569;-48
2024/04/17 00:50:07;;;;;;;4.93;3.03;;;6.30;99.90;;;;;;5362133;26;21031;-54
2024/04/17 00:52:36;;;;;;;5.50;3.23;;;6.30;99.90;;;;;;5373688;26;20242;-52
2024/04/17 00:55:04;;;;;;;3.63;3.00;;;6.30;99.90;;;;;;5357226;26;20288;-52
2024/04/17 00:57:34;;;;;;;5.17;2.87;;;6.20;99.90;;;;;;5300450;26;20257;-53
2024/04/17 01:00:01;;;;;;;6.87;3.27;;;6.20;99.90;;;;;;5363164;26;20297;-53
2024/04/17 01:02:29;;;;;;;4.57;2.97;;;6.20;99.90;;;;;;5362588;26;20854;-50
2024/04/17 01:04:58;;;;;;;3.57;3.23;;;6.10;99.90;;;;;;5349123;26;20238;-52
2024/04/17 01:07:27;;;;;;;4.50;3.07;;;6.10;99.90;;;;;;5361674;26;20241;-51
2024/04/17 01:09:55;;;;;;;4.03;2.63;;;6.10;99.90;;;;;;5357000;26;20261;-52
2024/04/17 01:12:21;;;;;;;6.53;3.80;;;6.10;99.90;;;;;;5309273;26;20265;-50
2024/04/17 01:14:49;;;;;;;2.80;2.57;;;6.10;99.90;;;;;;5356481;26;20280;-50
2024/04/17 01:17:15;;;;;;;4.57;2.77;;;6.00;99.90;;;;;;5328453;26;20234;-51
2024/04/17 01:19:45;;;;;;;2.87;2.63;;;6.00;99.90;;;;;;5355353;26;20343;-48
2024/04/17 01:22:11;;;;;;;4.10;3.00;;;5.90;99.90;;;;;;5349715;26;20241;-53
2024/04/17 01:24:42;;;;;;;4.60;2.90;;;5.80;99.90;;;;;;5351892;26;20238;-51
2024/04/17 01:27:08;;;;;;;4.43;3.10;;;5.80;99.90;;;;;;5329591;26;20709;-52
2024/04/17 01:29:36;;;;;;;3.50;3.07;;;5.80;99.90;;;;;;5346541;26;20300;-49
2024/04/17 01:32:02;;;;;;;6.20;3.07;;;5.80;99.90;;;;;;5363753;26;20238;-51
2024/04/17 01:34:32;;;;;;;3.87;3.57;;;5.80;99.90;;;;;;5351075;26;20331;-49
2024/04/17 01:36:58;;;;;;;4.13;3.30;;;5.80;99.90;;;;;;5347868;26;20897;-52
2024/04/17 01:39:27;;;;;;;5.10;3.50;;;5.80;99.90;;;;;;5348206;26;20273;-53
2024/04/17 01:41:55;;;;;;;7.00;3.77;;;5.80;99.90;;;;;;5364967;26;20273;-49
2024/04/17 01:44:23;;;;;;;4.10;3.03;;;5.80;99.90;;;;;;5323495;26;20985;-55
2024/04/17 01:46:49;;;;;;;7.47;3.60;;;5.80;99.90;;;;;;5366417;26;20277;-56
2024/04/17 01:49:18;;;;;;;3.27;2.77;;;5.70;99.90;;;;;;5348613;26;20226;-57
2024/04/17 01:51:44;;;;;;;3.27;2.97;;;5.80;99.90;;;;;;5353870;26;20241;-52
2024/04/17 01:54:12;;;;;;;2.93;2.73;;;5.80;99.90;;;;;;5350855;26;20242;-54
2024/04/17 01:56:38;;;;;;;4.20;3.37;;;5.70;99.90;;;;;;5364777;26;20237;-50
2024/04/17 01:59:10;;;;;;;3.63;3.33;;;5.70;99.90;;;;;;5323423;26;20636;-51
2024/04/17 02:01:36;;;;;;;3.13;2.70;;;5.70;99.90;;;;;;5364846;26;20272;-49
2024/04/17 02:04:04;;;;;;;3.63;3.03;;;5.70;99.90;;;;;;5356453;26;20611;-54
2024/04/17 02:06:30;;;;;;;4.03;2.87;;;5.60;99.90;;;;;;5360249;26;20230;-52
2024/04/17 02:08:58;;;;;;;4.97;3.00;;;5.60;99.90;;;;;;5351482;26;20344;-52
2024/04/17 02:11:24;;;;;;;3.47;2.90;;;5.60;99.90;;;;;;5360158;26;21110;-52
2024/04/17 02:13:53;;;;;;;3.57;2.83;;;5.50;99.90;;;;;;5366061;26;20288;-51
2024/04/17 02:16:21;;;;;;;6.13;2.80;;;5.50;99.90;;;;;;5320102;26;20241;-50
2024/04/17 02:18:50;;;;;;;3.10;2.80;;;5.40;99.90;;;;;;5356102;26;20273;-55
2024/04/17 02:21:16;;;;;;;3.80;2.93;;;5.40;99.90;;;;;;5304766;26;20276;-54
2024/04/17 02:23:44;;;;;;;3.07;2.87;;;5.40;99.90;;;;;;5353226;26;20238;-52
2024/04/17 02:26:10;;;;;;;3.10;2.33;;;5.40;99.90;;;;;;5361124;26;20238;-53
2024/04/17 02:28:39;;;;;;;3.37;2.67;;;5.30;99.90;;;;;;5364534;26;20280;-51
2024/04/17 02:31:04;;;;;;;3.50;2.70;;;5.30;99.90;;;;;;5322744;26;20254;-55
2024/04/17 02:33:36;;;;;;;3.00;2.47;;;5.30;99.90;;;;;;5350275;26;20230;-52
2024/04/17 02:36:02;;;;;;;3.87;2.50;;;5.30;99.90;;;;;;5345767;26;20727;-49
2024/04/17 02:38:30;;;;;;;3.03;2.83;;;5.20;99.90;;;;;;5360406;26;20276;-55
2024/04/17 02:40:56;;;;;;;3.03;2.70;;;5.10;99.90;;;;;;5358298;26;20242;-50
2024/04/17 02:43:25;;;;;;;3.67;2.97;;;5.10;99.90;;;;;;5364883;26;20346;-56
2024/04/17 02:45:50;;;;;;;2.83;2.53;;;5.00;99.90;;;;;;5319525;26;20288;-53
2024/04/17 02:48:19;;;;;;;3.67;2.63;;;5.00;99.90;;;;;;5352860;26;20230;-54
2024/04/17 02:50:47;;;;;;;3.20;2.93;;;5.00;99.90;;;;;;5346726;26;21075;-51
2024/04/17 02:53:16;;;;;;;3.70;2.97;;;4.90;99.90;;;;;;5366190;26;20289;-56
2024/04/17 02:55:42;;;;;;;3.40;3.00;;;4.90;99.90;;;;;;5347244;26;20234;-54
2024/04/17 02:58:10;;;;;;;6.90;3.20;;;4.90;99.90;;;;;;5366662;26;20276;-54
2024/04/17 03:00:36;;;;;;;2.80;2.57;;;4.80;99.90;;;;;;5351052;26;20274;-53
2024/04/17 03:03:05;;;;;;;2.80;2.60;;;4.80;99.90;;;;;;5313338;26;20320;-53
2024/04/17 03:05:33;;;;;;;4.27;2.97;;;4.80;99.90;;;;;;5361008;26;20300;-55
2024/04/17 03:08:04;;;;;;;3.97;3.07;;;4.80;99.90;;;;;;5360196;26;20339;-53
2024/04/17 03:10:30;;;;;;;4.13;3.20;;;4.80;99.90;;;;;;5350529;26;20234;-55
2024/04/17 03:12:59;;;;;;;3.63;3.30;;;4.70;99.90;;;;;;5360799;26;20276;-56
2024/04/17 03:15:24;;;;;;;5.43;3.90;;;4.70;99.90;;;;;;5351764;26;20230;-56
2024/04/17 03:17:53;;;;;;;3.77;3.43;;;4.60;99.90;;;;;;5284310;26;20293;-56
2024/04/17 03:20:19;;;;;;;3.43;2.90;;;4.70;99.90;;;;;;5365398;26;20237;-54
2024/04/17 03:22:47;;;;;;;4.70;3.50;;;4.70;99.90;;;;;;5347641;26;20316;-54
2024/04/17 03:25:16;;;;;;;3.60;3.30;;;4.80;99.90;;;;;;5365013;26;20277;-53
2024/04/17 03:27:44;;;;;;;4.03;2.93;;;4.80;99.90;;;;;;5340931;26;20234;-52
2024/04/17 03:30:11;;;;;;;3.97;3.67;;;4.80;99.90;;;;;;5352526;26;20845;-54
2024/04/17 03:32:39;;;;;;;3.33;3.03;;;4.80;99.90;;;;;;5325836;26;20241;-55
2024/04/17 03:35:07;;;;;;;3.20;2.90;;;4.80;99.90;;;;;;5353185;26;20620;-50
2024/04/17 03:37:36;;;;;;;4.40;3.10;;;4.80;99.90;;;;;;5352233;26;20288;-53
2024/04/17 03:40:05;;;;;;;3.73;2.97;;;4.80;99.90;;;;;;5372188;26;20233;-55
2024/04/17 03:42:36;;;;;;;4.57;3.60;;;4.70;99.90;;;;;;5335979;26;20245;-54
2024/04/17 03:45:05;;;;;;;4.73;3.07;;;4.60;99.90;;;;;;5357405;26;20304;-51
2024/04/17 03:47:34;;;;;;;3.50;2.60;;;4.50;99.90;;;;;;5359154;26;20240;-55
2024/04/17 03:50:05;;;;;;;3.10;2.67;;;4.50;99.90;;;;;;5325030;26;20262;-55
2024/04/17 03:52:31;;;;;;;4.03;3.00;;;4.60;99.90;;;;;;5361419;26;20245;-55
2024/04/17 03:55:00;;;;;;;3.20;2.80;;;4.50;99.90;;;;;;5362045;26;20276;-55
2024/04/17 03:57:27;;;;;;;3.70;3.07;;;4.50;99.90;;;;;;5326250;26;20259;-56
2024/04/17 03:59:58;;;;;;;3.10;2.80;;;4.40;99.90;;;;;;5360875;26;20781;-54
2024/04/17 04:02:24;;;;;;;4.23;3.13;;;4.30;99.90;;;;;;5357562;26;20272;-55
2024/04/17 04:04:53;;;;;;;5.47;3.60;;;4.30;99.90;;;;;;5324856;26;20241;-54
2024/04/17 04:07:19;;;;;;;3.60;3.30;;;4.40;99.90;;;;;;5351478;26;20277;-54
2024/04/17 04:09:49;;;;;;;6.13;3.83;;;4.30;99.90;;;;;;5351482;26;20287;-56
2024/04/17 04:12:15;;;;;;;3.73;3.43;;;4.30;99.90;;;;;;5346815;26;20241;-55
2024/04/17 04:14:43;;;;;;;4.03;3.00;;;4.20;99.90;;;;;;5356596;26;20396;-50
2024/04/17 04:17:11;;;;;;;4.13;3.73;;;4.20;99.90;;;;;;5363176;26;20736;-51
2024/04/17 04:19:40;;;;;;;4.43;3.43;;;4.20;99.90;;;;;;5322562;26;29623;-48
2024/04/17 04:22:06;;;;;;;4.63;3.63;;;4.20;99.90;;;;;;5364456;26;20662;-54
2024/04/17 04:24:34;;;;;;;4.80;3.30;;;4.10;99.90;;;;;;5327215;26;20246;-54
2024/04/17 04:27:00;;;;;;;5.53;3.60;;;4.10;99.90;;;;;;5339238;26;20284;-56
2024/04/17 04:29:28;;;;;;;4.00;3.60;;;4.10;99.90;;;;;;5346646;26;20238;-49
2024/04/17 04:31:57;;;;;;;3.67;3.37;;;4.10;99.90;;;;;;5361289;26;20744;-52
2024/04/17 04:34:25;;;;;;;4.03;2.90;;;4.10;99.90;;;;;;5356474;26;21161;-51
2024/04/17 04:36:54;;;;;;;6.70;3.53;;;4.20;99.90;;;;;;5321233;26;20250;-54
2024/04/17 04:39:20;;;;;;;7.57;4.13;;;4.10;99.90;;;;;;5336688;26;20247;-53
2024/04/17 04:41:48;;;;;;;3.30;3.00;;;4.10;99.90;;;;;;5352809;26;20246;-54
2024/04/17 04:44:17;;;;;;;6.20;3.43;;;4.20;99.90;;;;;;5349042;26;20230;-58
2024/04/17 04:46:43;;;;;;;3.77;3.37;;;4.20;99.90;;;;;;5348984;26;20246;-56
2024/04/17 04:49:11;;;;;;;6.37;3.80;;;4.20;99.90;;;;;;5354488;26;20281;-57
2024/04/17 04:51:39;;;;;;;3.53;3.23;;;4.10;99.90;;;;;;5311742;26;20296;-57
2024/04/17 04:54:08;;;;;;;4.40;3.30;;;4.10;99.90;;;;;;5347578;26;20246;-58
2024/04/17 04:56:34;;;;;;;3.43;3.13;;;4.00;99.90;;;;;;5346453;26;20245;-53
2024/04/17 04:59:02;;;;;;;4.23;3.13;;;4.00;99.90;;;;;;5363689;26;20307;-55
2024/04/17 05:01:28;;;;;;;3.50;3.20;;;4.00;99.90;;;;;;5345503;26;20234;-52
2024/04/17 05:03:56;;;;;;;5.20;3.47;;;4.00;99.90;;;;;;5351138;26;20273;-57
2024/04/17 05:06:22;;;;;;;3.83;3.20;;;4.00;99.90;;;;;;5347064;26;20304;-57
2024/04/17 05:08:53;;;;;;;4.17;3.57;;;4.00;99.90;;;;;;5313453;26;20257;-57
2024/04/17 05:11:19;;;;;;;7.53;3.20;;;4.10;99.90;;;;;;5344440;26;20238;-52
2024/04/17 05:13:48;;;;;;;3.80;3.50;;;4.10;99.90;;;;;;5343598;26;23651;-57
2024/04/17 05:16:14;;;;;;;4.00;3.40;;;4.20;99.90;;;;;;5349581;26;20317;-59
2024/04/17 05:18:42;;;;;;;4.67;3.23;;;4.20;99.90;;;;;;5336543;26;21117;-54
2024/04/17 05:21:08;;;;;;;6.73;3.07;;;4.20;99.90;;;;;;5350022;26;20238;-54
2024/04/17 05:23:36;;;;;;;3.97;3.60;;;4.30;99.90;;;;;;5316159;26;20292;-58
2024/04/17 05:26:05;;;;;;;4.80;3.27;;;4.30;99.90;;;;;;5357636;26;20288;-52
2024/04/17 05:28:34;;;;;;;4.03;3.63;;;4.40;99.90;;;;;;5338855;26;20241;-51
2024/04/17 05:31:00;;;;;;;7.53;3.20;;;4.40;99.90;;;;;;5363978;26;20241;-45
2024/04/17 05:33:28;;;;;;;3.30;3.00;;;4.50;99.90;;;;;;5320145;26;22069;-47
2024/04/17 05:35:54;;;;;;;5.63;2.80;;;4.50;99.90;;;;;;5351149;26;20622;-48
2024/04/17 05:38:23;;;;;;;5.37;3.43;;;4.60;99.90;;;;;;5318805;26;20257;-49
2024/04/17 05:40:49;;;;;;;4.07;3.00;;;4.60;99.90;;;;;;5367917;26;20250;-53
2024/04/17 05:43:20;;;;;;;7.03;3.00;;;4.70;99.90;;;;;;5340941;26;20281;-57
2024/04/17 05:45:46;;;;;;;2.40;2.20;;;4.70;99.90;;;;;;5359143;26;20292;-53
2024/04/17 05:48:15;;;;;;;4.10;2.50;;;4.70;99.90;;;;;;5303871;26;20380;-53
2024/04/17 05:50:41;;;;;;;3.10;2.50;;;4.80;99.90;;;;;;5342552;26;20794;-51
2024/04/17 05:53:10;;;;;;;3.30;2.67;;;4.90;99.90;;;;;;5349849;26;20799;-56
2024/04/17 05:55:39;;;;;;;2.90;2.60;;;4.90;99.90;;;;;;5325119;26;20351;-53
2024/04/17 05:58:08;;;;;;;2.30;2.10;;;5.00;99.90;;;;;;5311731;26;20253;-54
2024/04/17 06:00:36;;;;;;;3.80;2.33;;;5.00;99.90;;;;;;5358829;26;20339;-56
2024/04/17 06:03:05;;;;;;;2.80;2.37;;;5.10;99.90;;;;;;5336862;26;20759;-56
2024/04/17 06:05:31;;;;;;;3.23;2.00;;;5.20;99.90;;;;;;5353714;26;20238;-50
2024/04/17 06:08:00;;;;;;;2.87;2.27;;;5.30;99.90;;;;;;5351916;26;20242;-57
2024/04/17 06:10:26;;;;;;;2.20;2.00;;;5.40;99.90;;;;;;5320459;26;20396;-56
2024/04/17 06:12:54;;;;;;;3.10;1.87;;;5.50;99.90;;;;;;5356222;26;20287;-59
2024/04/17 06:15:23;;;;;;;5.70;2.57;;;5.60;99.90;;;;;;5339264;26;20227;-55
2024/04/17 06:17:51;;;;;;;2.90;2.10;;;5.70;99.90;;;;;;5349130;26;20229;-51
2024/04/17 06:20:20;;;;;;;1.70;1.60;;;5.70;99.90;;;;;;5349784;26;21195;-49
2024/04/17 06:22:46;;;;;;;1.83;1.63;;;5.80;99.90;;;;;;5364523;26;20234;-54
2024/04/17 06:25:15;;;;;;;4.93;1.60;;;5.90;99.90;;;;;;5351745;26;20276;-51
2024/04/17 06:27:41;;;;;;;2.63;1.90;;;6.00;99.90;;;;;;5292409;26;20285;-55
2024/04/17 06:30:11;;;;;;;2.73;1.57;;;6.10;99.90;;;;;;5333693;26;20237;-58
2024/04/17 06:32:37;;;;;;;3.43;1.67;;;6.20;99.90;;;;;;5361259;26;20238;-50
2024/04/17 06:35:08;;;;;;;5.37;1.70;;;6.20;99.90;;;;;;5341206;26;20615;-56
2024/04/17 06:37:34;;;;;;;2.53;2.00;;;6.30;99.90;;;;;;5358619;26;20237;-49
2024/04/17 06:40:03;;;;;;;1.47;1.37;;;6.40;99.90;;;;;;5340325;26;20268;-56
2024/04/17 06:42:29;;;;;;;1.73;1.50;;;6.40;99.90;;;;;;5313641;26;20289;-56
2024/04/17 06:44:58;;;;;;;3.40;1.90;;;6.60;99.90;;;;;;5325945;26;20241;-51
2024/04/17 06:47:24;;;;;;;1.77;1.53;;;6.60;99.90;;;;;;5362441;26;20689;-53
2024/04/17 06:49:53;;;;;;;5.60;2.70;;;6.70;99.90;;;;;;5359174;26;20242;-60
2024/04/17 06:52:21;;;;;;;2.97;1.93;;;6.80;99.90;;;;;;5352875;26;20238;-52
2024/04/17 06:54:50;;;;;;;2.50;1.60;;;6.90;99.90;;;;;;5355394;26;20242;-59
2024/04/17 06:57:16;;;;;;;4.83;1.50;;;6.90;99.90;;;;;;5314247;26;20736;-53
2024/04/17 06:59:44;;;;;;;2.53;1.90;;;7.00;99.90;;;;;;5352730;26;20281;-58
2024/04/17 07:02:10;;;;;;;3.43;1.73;;;7.00;99.90;;;;;;5351838;26;20261;-52
2024/04/17 07:04:39;;;;;;;4.87;1.50;;;7.10;99.90;;;;;;5363946;26;20947;-58
2024/04/17 07:07:05;;;;;;;2.00;1.27;;;7.10;99.90;;;;;;5347411;26;20241;-49
2024/04/17 07:09:36;;;;;;;4.27;1.43;;;7.20;99.90;;;;;;5356804;26;20270;-56
2024/04/17 07:12:03;;;;;;;2.47;1.30;;;7.20;99.90;;;;;;5347972;26;20238;-56
2024/04/17 07:14:31;;;;;;;1.83;1.33;;;7.30;99.90;;;;;;5313245;26;20277;-54
2024/04/17 07:16:57;;;;;;;2.60;1.20;;;7.40;99.90;;;;;;5344950;26;20277;-50
2024/04/17 07:19:26;;;;;;;4.33;1.60;;;7.40;99.90;;;;;;5365324;26;20238;-52
2024/04/17 07:21:51;;;;;;;3.70;1.50;;;7.50;99.90;;;;;;5360082;26;20316;-58
2024/04/17 07:24:22;;;;;;;1.73;1.63;;;7.60;99.90;;;;;;5340946;26;20234;-56
2024/04/17 07:26:51;;;;;;;1.97;1.10;;;7.70;99.90;;;;;;5339136;26;20242;-58
2024/04/17 07:29:19;;;;;;;3.70;1.20;;;7.70;99.90;;;;;;5323240;26;20725;-53
2024/04/17 07:31:47;;;;;;;4.63;1.50;;;7.80;99.90;;;;;;5347362;26;20246;-58
2024/04/17 07:34:15;;;;;;;2.60;1.70;;;7.80;99.90;;;;;;5350120;26;20277;-55
2024/04/17 07:36:41;;;;;;;1.93;1.23;;;7.90;99.90;;;;;;5356783;26;20229;-56
2024/04/17 07:39:10;;;;;;;1.37;1.27;;;8.00;99.90;;;;;;5339291;26;20280;-55
2024/04/17 07:41:36;;;;;;;2.00;1.43;;;8.00;99.90;;;;;;5345388;26;20272;-52
2024/04/17 07:44:08;;;;;;;1.80;1.70;;;8.10;99.90;;;;;;5365363;26;20626;-52
2024/04/17 07:46:34;;;;;;;3.10;1.17;;;8.10;99.90;;;;;;5303218;26;20376;-50
2024/04/17 07:49:03;;;;;;;4.20;1.40;;;8.20;99.90;;;;;;5363872;26;20246;-50
2024/04/17 07:51:29;;;;;;;4.67;1.50;;;8.20;99.90;;;;;;5350529;26;20326;-59
2024/04/17 07:53:58;;;;;;;2.97;1.50;;;8.30;99.90;;;;;;5336624;26;20284;-49
2024/04/17 07:56:24;;;;;;;4.67;1.20;;;8.40;99.90;;;;;;5355320;26;20238;-58
2024/04/17 07:58:52;;;;;;;4.57;1.10;;;8.40;99.90;;;;;;5359041;26;20276;-51
2024/04/17 08:01:21;;;;;;;2.33;1.00;;;8.50;99.90;;;;;;5318752;26;20592;-58
2024/04/17 08:03:50;;;;;;;4.20;1.43;;;8.60;99.90;;;;;;5357302;26;20280;-56
2024/04/17 08:06:20;;;;;;;1.07;0.80;;;8.70;99.90;;;;;;5349015;26;20284;-57
2024/04/17 08:08:48;;;;;;;4.03;1.10;;;8.80;99.90;;;;;;5355699;26;20268;-52
2024/04/17 08:11:16;;;;;;;3.67;1.03;;;8.90;99.90;;;;;;5351952;26;20241;-58
2024/04/17 08:13:46;;;;;;;1.23;0.80;;;9.00;99.90;;;;;;5352964;26;20233;-51
2024/04/17 08:16:12;;;;;;;1.60;1.10;;;9.00;99.90;;;;;;5323953;26;20245;-54
2024/04/17 08:18:43;;;;;;;2.67;1.00;;;9.10;99.90;;;;;;5343655;26;21066;-54
2024/04/17 08:21:08;;;;;;;3.20;1.07;;;9.20;99.90;;;;;;5350763;26;20242;-55
2024/04/17 08:23:37;;;;;;;2.93;0.73;;;9.20;99.90;;;;;;5353421;26;20241;-52
2024/04/17 08:26:03;;;;;;;0.97;0.67;;;9.20;99.90;;;;;;5339836;26;20285;-54
2024/04/17 08:28:32;;;;;;;2.63;0.93;;;9.20;99.90;;;;;;5343119;26;20284;-52
2024/04/17 08:30:59;;;;;;;1.53;0.70;;;9.30;99.90;;;;;;5364151;26;20271;-51
2024/04/17 08:33:28;;;;;;;0.93;0.60;;;9.30;99.90;;;;;;5298197;26;20308;-47
2024/04/17 08:35:56;;;;;;;1.10;0.87;;;9.20;99.90;;;;;;5352308;26;20269;-51
2024/04/17 08:38:26;;;;;;;2.70;0.60;;;9.30;99.90;;;;;;5357097;26;20230;-59
2024/04/17 08:40:52;;;;;;;1.30;0.63;;;9.40;99.90;;;;;;5318323;26;20879;-58
2024/04/17 08:43:26;;;;;;;1.03;0.70;;;9.50;99.90;;;;;;5353693;26;20240;-53
2024/04/17 08:45:54;;;;;;;0.60;0.47;;;9.60;99.90;;;;;;5338707;26;20295;-56
2024/04/17 08:48:23;;;;;;;1.43;0.50;;;9.70;99.90;;;;;;5312706;26;20323;-57
2024/04/17 08:50:50;;;;;;;0.40;0.40;;;9.70;99.90;;;;;;5338379;26;20246;-55
2024/04/17 08:53:22;;;;;;;2.47;0.50;;;9.80;99.90;;;;;;5360654;26;20237;-54
2024/04/17 08:55:48;;;;;;;2.10;0.60;;;9.80;99.90;;;;;;5347030;26;20277;-53
2024/04/17 08:58:18;;;;;;;1.20;0.60;;;9.80;99.90;;;;;;5353459;26;20238;-56
2024/04/17 09:00:48;;;;;;;1.43;0.40;;;9.80;99.90;;;;;;5327944;26;20388;-53
2024/04/17 09:03:22;;;;;;;2.20;0.70;;;9.70;99.90;;;;;;5305713;26;20362;-52
2024/04/17 09:05:49;;;;;;;1.13;0.60;;;9.80;99.90;;;;;;5351049;26;20281;-49
2024/04/17 09:08:18;;;;;;;2.50;0.40;;;9.90;99.90;;;;;;5363597;26;20238;-53
2024/04/17 09:10:48;;;;;;;1.20;0.63;;;10.00;99.90;;;;;;5354692;26;20408;-54
2024/04/17 09:13:17;;;;;;;1.27;0.70;;;10.10;99.90;;;;;;5351264;26;20603;-55
2024/04/17 09:15:44;;;;;;;1.80;0.87;;;10.20;99.90;;;;;;5337587;26;20285;-57
2024/04/17 09:18:13;;;;;;;2.10;0.50;;;10.20;99.90;;;;;;5349938;26;20622;-51
2024/04/17 09:20:40;;;;;;;2.33;0.77;;;10.20;99.90;;;;;;5314643;26;20380;-58
2024/04/17 09:23:12;;;;;;;1.70;0.50;;;10.30;99.90;;;;;;5362798;26;20269;-53
2024/04/17 09:25:38;;;;;;;1.00;0.90;;;10.30;99.90;;;;;;5359145;26;20361;-56
2024/04/17 09:28:12;;;;;;;1.80;0.97;;;10.40;99.90;;;;;;5345747;26;20249;-53
2024/04/17 09:30:40;;;;;;;2.17;0.60;;;10.40;99.90;;;;;;5337454;26;20345;-58
2024/04/17 09:33:10;;;;;;;2.10;0.90;;;10.40;99.90;;;;;;5357169;26;20276;-57
2024/04/17 09:35:37;;;;;;;3.23;1.40;;;10.40;99.90;;;;;;5321738;26;20246;-58
2024/04/17 09:38:10;;;;;;;2.00;0.93;;;10.60;99.90;;;;;;5361763;26;20635;-52
2024/04/17 09:40:36;;;;;;;2.77;1.00;;;10.40;99.90;;;;;;5362036;26;20242;-58
2024/04/17 09:43:11;;;;;;;3.33;0.87;;;10.40;99.90;;;;;;5347245;26;20693;-58
2024/04/17 09:45:38;;;;;;;1.17;1.07;;;10.50;99.90;;;;;;5341165;26;20237;-57
2024/04/17 09:48:10;;;;;;;1.90;1.33;;;10.70;99.90;;;;;;5349119;26;20288;-53
2024/04/17 09:50:37;;;;;;;3.30;1.70;;;10.80;99.90;;;;;;5323672;26;20246;-59
2024/04/17 09:53:07;;;;;;;2.80;1.50;;;10.90;99.90;;;;;;5350558;26;20237;-54
2024/04/17 09:55:34;;;;;;;3.03;1.30;;;11.00;99.90;;;;;;5355443;26;20323;-58
2024/04/17 09:58:03;;;;;;;1.30;1.20;;;11.00;99.90;;;;;;5348069;26;21230;-56
2024/04/17 10:00:32;;;;;;;1.60;1.50;;;11.00;99.90;;;;;;5356351;26;20246;-58
2024/04/17 10:03:03;;;;;;;1.50;1.30;;;10.80;99.90;;;;;;5355249;26;20242;-49
2024/04/17 10:05:30;;;;;;;1.33;1.00;;;11.00;99.90;;;;;;5312935;26;20754;-60
2024/04/17 10:08:00;;;;;;;1.57;1.00;;;10.90;99.90;;;;;;5360800;26;20237;-48
2024/04/17 10:10:29;;;;;;;1.23;0.90;;;10.90;99.90;;;;;;5348721;26;20276;-60
2024/04/17 10:12:59;;;;;;;2.33;0.90;;;10.90;99.90;;;;;;5352488;26;21305;-54
2024/04/17 10:15:24;;;;;;;2.23;0.80;;;11.10;99.90;;;;;;5352916;26;20241;-56
2024/04/17 10:17:55;;;;;;;1.00;0.90;;;11.20;99.90;;;;;;5349107;26;20276;-51
2024/04/17 10:20:28;;;;;;;3.50;0.93;;;11.10;99.90;;;;;;5364687;26;20284;-54
2024/04/17 10:23:08;;;;;;;1.40;1.03;;;11.20;99.90;;;;;;5327089;26;20234;-53
2024/04/17 10:25:44;;;;;;;2.43;0.80;;;11.20;99.90;;;;;;5314368;26;20265;-58
2024/04/17 10:28:14;;;;;;;1.73;0.70;;;11.30;99.90;;;;;;5360327;26;20334;-49
2024/04/17 10:30:44;;;;;;;2.07;0.80;;;11.30;99.90;;;;;;5345340;26;20802;-60
2024/04/17 10:33:25;;;;;;;1.60;0.67;;;11.40;99.90;;;;;;5350039;26;20277;-52
2024/04/17 10:35:54;;;;;;;1.67;0.80;;;11.40;99.90;;;;;;5348494;26;21121;-52
2024/04/17 10:38:23;;;;;;;1.87;0.60;;;11.50;99.90;;;;;;5312036;26;20268;-56
2024/04/17 10:40:55;;;;;;;0.67;0.50;;;11.50;99.90;;;;;;5340171;26;20384;-50
2024/04/17 10:43:21;;;;;;;1.80;0.60;;;11.40;99.90;;;;;;5335130;26;20874;-53
2024/04/17 10:45:57;;;;;;;2.10;0.60;;;11.20;99.90;;;;;;5347001;26;21071;-50
2024/04/17 10:48:26;;;;;;;3.03;0.80;;;11.00;99.90;;;;;;5356266;26;20280;-54
2024/04/17 10:50:55;;;;;;;2.37;0.70;;;11.10;99.90;;;;;;5344975;26;20570;-56
2024/04/17 10:53:21;;;;;;;1.77;0.50;;;11.20;99.90;;;;;;5313487;26;20257;-55
2024/04/17 10:55:51;;;;;;;3.83;0.80;;;11.20;99.90;;;;;;5345497;26;20234;-50
2024/04/17 10:58:18;;;;;;;0.77;0.40;;;11.20;99.90;;;;;;5359678;26;20273;-53
2024/04/17 11:00:46;;;;;;;1.43;0.63;;;11.50;99.90;;;;;;5351475;26;20234;-55
2024/04/17 11:03:12;;;;;;;2.10;0.87;;;11.50;99.70;;;;;;5347848;26;20473;-50
2024/04/17 11:05:43;;;;;;;2.20;0.70;;;11.60;99.60;;;;;;5331100;26;20680;-59
2024/04/17 11:08:10;;;;;;;2.70;0.70;;;11.80;98.70;;;;;;5310939;26;20381;-54
2024/04/17 11:10:38;;;;;;;3.43;0.57;;;11.80;98.80;;;;;;5350397;26;20238;-58
2024/04/17 11:13:14;;;;;;;0.43;0.40;;;11.80;99.10;;;;;;5361288;26;20238;-54
2024/04/17 11:15:43;;;;;;;2.47;0.70;;;11.60;97.60;;;;;;5355771;26;20241;-58
2024/04/17 11:18:09;;;;;;;1.37;0.50;;;11.50;98.20;;;;;;5346027;26;20736;-57
2024/04/17 11:20:39;;;;;;;3.43;0.60;;;11.40;98.00;;;;;;5338992;26;20343;-58
2024/04/17 11:23:09;;;;;;;2.13;0.67;;;11.40;98.80;;;;;;5351001;26;20307;-51
2024/04/17 11:25:38;;;;;;;1.13;0.73;;;11.60;99.60;;;;;;5311765;26;20254;-59
2024/04/17 11:28:05;;;;;;;2.13;0.67;;;11.70;99.30;;;;;;5330107;26;20276;-49
2024/04/17 11:30:33;;;;;;;1.73;0.60;;;11.80;98.90;;;;;;5356621;26;20323;-58
2024/04/17 11:33:02;;;;;;;2.17;0.80;;;11.90;99.20;;;;;;5340731;26;20281;-57
2024/04/17 11:35:31;;;;;;;1.40;0.70;;;12.00;98.20;;;;;;5349594;26;20289;-59
2024/04/17 11:37:57;;;;;;;1.40;0.63;;;12.00;97.90;;;;;;5343945;26;20238;-58
2024/04/17 11:40:28;;;;;;;1.37;0.47;;;12.10;97.80;;;;;;5318722;26;20246;-53
2024/04/17 11:42:54;;;;;;;1.43;0.70;;;12.20;97.50;;;;;;5347625;26;20288;-53
2024/04/17 11:45:23;;;;;;;0.60;0.57;;;12.20;96.40;;;;;;5356891;26;21054;-53
2024/04/17 11:47:49;;;;;;;2.53;0.60;;;12.20;95.50;;;;;;5351099;26;21050;-53
2024/04/17 11:50:17;;;;;;;1.50;0.40;;;12.00;95.10;;;;;;5335369;26;20229;-55
2024/04/17 11:52:43;;;;;;;0.93;0.50;;;12.00;95.20;;;;;;5358127;26;20246;-52
2024/04/17 11:55:12;;;;;;;1.67;0.50;;;12.00;94.70;;;;;;5316803;26;20242;-59
2024/04/17 11:57:41;;;;;;;2.40;0.87;;;12.00;94.70;;;;;;5352757;26;20346;-50
2024/04/17 12:00:12;;;;;;;0.50;0.50;;;12.10;95.70;;;;;;5354788;26;20548;-59
2024/04/17 12:02:40;;;;;;;1.90;0.60;;;12.10;94.70;;;;;;5347138;26;20835;-54
2024/04/17 12:05:09;;;;;;;2.73;0.40;;;11.80;95.40;;;;;;5347839;26;20257;-59
2024/04/17 12:07:35;;;;;;;0.87;0.63;;;11.80;96.00;;;;;;5315367;26;20242;-52
2024/04/17 12:10:04;;;;;;;3.00;0.60;;;11.80;96.40;;;;;;5348862;26;20717;-56
2024/04/17 12:12:30;;;;;;;0.63;0.63;;;11.70;96.50;;;;;;5311925;26;20262;-49
2024/04/17 12:15:01;;;;;;;2.07;0.90;;;11.70;96.60;;;;;;5350178;26;20234;-57
2024/04/17 12:17:27;;;;;;;1.27;0.90;;;11.60;97.20;;;;;;5317960;26;21151;-52
2024/04/17 12:19:55;;;;;;;2.77;1.00;;;11.80;99.30;;;;;;5350170;26;20242;-54
2024/04/17 12:22:21;;;;;;;2.00;0.80;;;11.90;99.90;;;;;;5347462;26;20249;-53
2024/04/17 12:27:34;;;;;;;3.53;1.20;;;11.90;99.90;;;;;;5315713;26;22787;-55
2024/04/17 12:30:06;;;;;;;1.57;0.70;;;11.90;99.90;;;;;;5339016;26;20234;-58
2024/04/17 12:32:35;;;;;;;0.80;0.80;;;12.00;99.90;;;;;;5358051;26;21163;-52
2024/04/17 12:35:04;;;;;;;1.13;0.80;;;12.10;99.90;;;;;;5351374;26;20276;-57
2024/04/17 12:37:32;;;;;;;1.63;0.80;;;12.20;99.90;;;;;;5351682;26;20280;-53
2024/04/17 12:40:01;;;;;;;2.00;0.83;;;12.10;99.90;;;;;;5365745;26;20852;-56
2024/04/17 12:42:29;;;;;;;1.17;0.73;;;12.10;99.90;;;;;;5343389;26;21037;-55
2024/04/17 12:44:58;;;;;;;1.70;0.80;;;12.10;99.90;;;;;;5313029;26;20246;-57
2024/04/17 12:47:29;;;;;;;1.97;0.80;;;12.40;99.90;;;;;;5362163;26;20268;-48
2024/04/17 12:49:54;;;;;;;1.27;0.90;;;12.60;99.90;;;;;;5352907;26;20241;-59
2024/04/17 12:52:23;;;;;;;2.17;0.77;;;12.70;99.90;;;;;;5351263;26;20292;-50
2024/04/17 12:54:53;;;;;;;1.50;0.50;;;12.90;99.90;;;;;;5363522;26;20229;-52
2024/04/17 12:57:22;;;;;;;2.17;0.80;;;13.00;99.90;;;;;;5337830;26;21017;-52
2024/04/17 12:59:51;;;;;;;2.57;0.90;;;12.80;99.90;;;;;;5326811;26;20246;-51